Time;durP1;ratioP1;P1;durP2;ratioP2;P2;SDS_P1;SDS_P2;PMS_P1;PMS_P2;Temp;Humidity;BMP_temperature;BMP_pressure;BME280_temperature;BME280_humidity;BME280_pressure;Samples;Min_cycle;Max_cycle;Signal;HPM_P1;HPM_P2
2024/02/15 00:01:56;;;;;;;7.88;1.20;;;;;;;;;;5121085;27;20097;-72
2024/02/15 00:04:26;;;;;;;5.38;0.95;;;;;;;;;;5121042;27;20070;-75
2024/02/15 00:06:57;;;;;;;4.60;1.40;;;;;;;;;;5120858;27;20058;-75
2024/02/15 00:09:28;;;;;;;5.63;1.00;;;;;;;;;;5121559;27;20058;-76
2024/02/15 00:12:51;;;;;;;8.90;0.90;;;;;;;;;;5103679;27;20764;-73
2024/02/15 00:15:23;;;;;;;5.90;1.08;;;;;;;;;;5101867;27;20054;-73
2024/02/15 00:17:53;;;;;;;8.13;1.08;;;;;;;;;;5118925;27;20427;-73
2024/02/15 00:20:23;;;;;;;11.13;0.90;;;;;;;;;;5119942;27;20646;-74
2024/02/15 00:22:55;;;;;;;7.50;1.23;;;;;;;;;;5119206;27;20062;-73
2024/02/15 00:25:26;;;;;;;4.25;1.25;;;;;;;;;;5119271;27;20164;-74
2024/02/15 00:27:57;;;;;;;6.75;1.10;;;;;;;;;;5119909;27;20051;-73
2024/02/15 00:30:27;;;;;;;8.43;1.20;;;;;;;;;;5120838;27;20042;-74
2024/02/15 00:32:57;;;;;;;6.75;0.98;;;;;;;;;;5120383;27;20051;-74
2024/02/15 00:35:29;;;;;;;9.85;1.17;;;;;;;;;;5122919;27;20688;-74
2024/02/15 00:39:08;;;;;;;7.03;0.75;;;;;;;;;;5108748;27;20051;-75
2024/02/15 00:42:34;;;;;;;9.00;1.13;;;;;;;;;;5098938;28;20526;-74
2024/02/15 00:45:05;;;;;;;5.82;1.13;;;;;;;;;;5098882;28;20494;-73
2024/02/15 00:47:38;;;;;;;7.40;1.00;;;;;;;;;;5099943;28;20532;-74
2024/02/15 00:50:11;;;;;;;7.25;0.90;;;;;;;;;;5098088;27;20047;-74
2024/02/15 00:52:42;;;;;;;8.20;1.55;;;;;;;;;;5098558;28;20090;-74
2024/02/15 00:55:12;;;;;;;7.75;0.95;;;;;;;;;;5098893;28;20043;-73
2024/02/15 00:57:43;;;;;;;6.90;0.98;;;;;;;;;;5099236;28;20063;-73
2024/02/15 01:00:13;;;;;;;6.88;1.02;;;;;;;;;;5099122;28;20209;-74
2024/02/15 01:02:43;;;;;;;5.30;0.88;;;;;;;;;;5100140;28;20083;-75
2024/02/15 01:05:15;;;;;;;5.88;1.25;;;;;;;;;;5099848;28;21167;-74
2024/02/15 01:07:50;;;;;;;10.68;1.25;;;;;;;;;;5118593;27;20612;-75
2024/02/15 01:11:07;;;;;;;5.30;0.98;;;;;;;;;;5118724;27;20201;-75
2024/02/15 01:13:38;;;;;;;10.98;0.82;;;;;;;;;;5108872;27;20425;-75
2024/02/15 01:16:08;;;;;;;7.90;0.88;;;;;;;;;;5101579;28;20056;-74
2024/02/15 01:18:39;;;;;;;2.83;0.80;;;;;;;;;;5101849;28;20055;-74
2024/02/15 01:21:11;;;;;;;3.58;1.10;;;;;;;;;;5101015;28;20059;-74
2024/02/15 01:23:44;;;;;;;6.90;1.42;;;;;;;;;;5101063;28;20059;-74
2024/02/15 01:26:14;;;;;;;6.28;0.90;;;;;;;;;;5102099;28;20043;-73
2024/02/15 01:28:48;;;;;;;7.13;1.23;;;;;;;;;;5111032;27;20047;-73
2024/02/15 01:31:19;;;;;;;10.23;1.08;;;;;;;;;;5118649;27;20425;-75
2024/02/15 01:33:49;;;;;;;6.65;1.10;;;;;;;;;;5122381;27;20502;-73
2024/02/15 01:36:20;;;;;;;6.78;1.13;;;;;;;;;;5122913;28;20054;-73
2024/02/15 01:38:50;;;;;;;10.30;1.50;;;;;;;;;;5122146;27;20059;-74
2024/02/15 01:41:22;;;;;;;5.60;1.02;;;;;;;;;;5121240;27;20051;-74
2024/02/15 01:43:52;;;;;;;10.73;1.27;;;;;;;;;;5121940;27;20054;-74
2024/02/15 01:46:22;;;;;;;8.38;0.85;;;;;;;;;;5125127;27;20669;-74
2024/02/15 01:48:54;;;;;;;10.57;1.17;;;;;;;;;;5126772;27;20067;-75
2024/02/15 01:51:25;;;;;;;13.32;1.40;;;;;;;;;;5125860;27;20059;-74
2024/02/15 01:53:55;;;;;;;7.95;1.60;;;;;;;;;;5126563;27;20493;-74
2024/02/15 01:56:26;;;;;;;12.75;1.13;;;;;;;;;;5124636;27;20059;-74
2024/02/15 01:58:59;;;;;;;9.15;1.63;;;;;;;;;;5124752;27;20133;-74
2024/02/15 02:01:35;;;;;;;9.18;1.20;;;;;;;;;;5125566;27;20050;-75
2024/02/15 02:04:05;;;;;;;8.20;1.10;;;;;;;;;;5125032;27;20055;-75
2024/02/15 02:06:37;;;;;;;7.38;1.25;;;;;;;;;;5126207;27;20051;-75
2024/02/15 02:09:15;;;;;;;6.45;1.25;;;;;;;;;;5126199;27;20039;-75
2024/02/15 02:11:48;;;;;;;6.60;1.27;;;;;;;;;;5125065;27;20051;-75
2024/02/15 02:14:20;;;;;;;10.60;2.08;;;;;;;;;;5125315;27;20078;-74
2024/02/15 02:16:51;;;;;;;13.13;1.67;;;;;;;;;;5124873;27;20051;-75
2024/02/15 02:20:31;;;;;;;10.73;1.23;;;;;;;;;;5125460;27;20497;-75
2024/02/15 02:23:44;;;;;;;;;;;;;;;;;;5098416;27;20070;-75
2024/02/15 02:26:41;;;;;;;11.60;0.98;;;;;;;;;;5123900;27;21142;-75
2024/02/15 02:29:12;;;;;;;9.05;1.15;;;;;;;;;;5125475;27;20047;-74
2024/02/15 02:31:43;;;;;;;10.35;1.40;;;;;;;;;;5125489;27;20043;-75
2024/02/15 02:34:14;;;;;;;6.80;1.40;;;;;;;;;;5124602;27;20055;-75
2024/02/15 02:36:46;;;;;;;12.30;1.67;;;;;;;;;;5125151;27;20055;-75
2024/02/15 02:39:16;;;;;;;10.43;1.45;;;;;;;;;;5125589;27;20035;-74
2024/02/15 02:41:47;;;;;;;14.10;1.73;;;;;;;;;;5124588;27;20058;-75
2024/02/15 02:44:18;;;;;;;8.93;1.20;;;;;;;;;;5124714;27;20047;-74
2024/02/15 02:46:48;;;;;;;6.93;1.67;;;;;;;;;;5125029;27;20047;-75
2024/02/15 02:49:18;;;;;;;11.80;1.58;;;;;;;;;;5123651;27;20535;-75
2024/02/15 02:51:49;;;;;;;9.38;1.50;;;;;;;;;;5124555;27;20069;-75
2024/02/15 02:54:20;;;;;;;5.07;1.05;;;;;;;;;;5124621;27;20066;-75
2024/02/15 02:56:51;;;;;;;7.93;0.98;;;;;;;;;;5123712;27;20055;-75
2024/02/15 02:59:21;;;;;;;6.65;1.25;;;;;;;;;;5124148;27;20062;-75
2024/02/15 03:01:56;;;;;;;10.38;1.48;;;;;;;;;;5124711;27;20040;-75
2024/02/15 03:04:27;;;;;;;7.35;1.25;;;;;;;;;;5123113;27;20077;-75
2024/02/15 03:06:57;;;;;;;10.05;1.33;;;;;;;;;;5124121;27;20532;-75
2024/02/15 03:09:29;;;;;;;4.95;1.00;;;;;;;;;;5124138;27;20055;-75
2024/02/15 03:12:01;;;;;;;6.82;0.98;;;;;;;;;;5124580;27;20047;-75
2024/02/15 03:14:35;;;;;;;10.07;1.58;;;;;;;;;;5123724;27;20066;-74
2024/02/15 03:17:05;;;;;;;18.83;1.65;;;;;;;;;;5125573;27;20062;-75
2024/02/15 03:19:35;;;;;;;15.38;1.95;;;;;;;;;;5124223;27;20059;-75
2024/02/15 03:22:06;;;;;;;18.00;2.13;;;;;;;;;;5122520;27;20054;-75
2024/02/15 03:24:37;;;;;;;14.48;1.83;;;;;;;;;;5123652;27;20046;-75
2024/02/15 03:27:10;;;;;;;9.90;1.70;;;;;;;;;;5122982;27;20528;-75
2024/02/15 03:29:40;;;;;;;11.02;1.52;;;;;;;;;;5124671;27;20480;-75
2024/02/15 03:32:11;;;;;;;13.43;1.58;;;;;;;;;;5122373;27;20082;-75
2024/02/15 03:34:42;;;;;;;8.30;1.00;;;;;;;;;;5123565;27;20051;-75
2024/02/15 03:37:13;;;;;;;7.10;1.45;;;;;;;;;;5124362;27;20102;-75
2024/02/15 03:39:44;;;;;;;9.60;1.00;;;;;;;;;;5123174;27;20058;-75
2024/02/15 03:42:15;;;;;;;8.77;1.02;;;;;;;;;;5124615;27;20802;-74
2024/02/15 03:44:44;;;;;;;6.68;1.25;;;;;;;;;;5125028;27;20813;-76
2024/02/15 03:47:15;;;;;;;9.30;1.65;;;;;;;;;;5123240;27;20067;-75
2024/02/15 03:49:45;;;;;;;8.07;1.20;;;;;;;;;;5123669;27;20623;-75
2024/02/15 03:52:17;;;;;;;13.32;1.85;;;;;;;;;;5123396;27;20577;-75
2024/02/15 03:54:47;;;;;;;8.65;1.15;;;;;;;;;;5123107;27;20055;-75
2024/02/15 03:57:17;;;;;;;6.70;1.08;;;;;;;;;;5123337;27;20059;-74
2024/02/15 04:00:10;;;;;;;9.30;1.48;;;;;;;;;;5123906;27;20502;-75
2024/02/15 04:02:40;;;;;;;9.35;1.40;;;;;;;;;;5123358;27;20062;-75
2024/02/15 04:05:12;;;;;;;9.77;1.23;;;;;;;;;;5122417;27;20047;-74
2024/02/15 04:07:42;;;;;;;7.78;1.02;;;;;;;;;;5123311;27;20035;-75
2024/02/15 04:10:13;;;;;;;5.97;1.40;;;;;;;;;;5123620;27;20054;-75
2024/02/15 04:12:43;;;;;;;9.35;1.30;;;;;;;;;;5123236;27;20055;-75
2024/02/15 04:15:16;;;;;;;6.10;1.20;;;;;;;;;;5122636;27;20054;-74
2024/02/15 04:17:47;;;;;;;7.25;1.20;;;;;;;;;;5123631;27;20055;-75
2024/02/15 04:20:17;;;;;;;12.30;1.83;;;;;;;;;;5123487;27;20650;-74
2024/02/15 04:22:50;;;;;;;9.15;1.65;;;;;;;;;;5123548;27;20055;-75
2024/02/15 04:25:27;;;;;;;5.72;1.42;;;;;;;;;;5122315;27;20513;-73
2024/02/15 04:27:59;;;;;;;6.45;1.27;;;;;;;;;;5122578;27;20051;-72
2024/02/15 04:30:30;;;;;;;11.18;1.27;;;;;;;;;;5122660;27;20051;-72
2024/02/15 04:33:02;;;;;;;8.43;1.30;;;;;;;;;;5123486;27;20047;-72
2024/02/15 04:35:32;;;;;;;8.82;1.40;;;;;;;;;;5123111;27;20051;-72
2024/02/15 04:38:03;;;;;;;7.25;1.20;;;;;;;;;;5122735;27;20077;-72
2024/02/15 04:40:33;;;;;;;11.45;1.73;;;;;;;;;;5122997;27;20051;-73
2024/02/15 04:43:04;;;;;;;4.80;0.90;;;;;;;;;;5122502;27;20062;-73
2024/02/15 04:45:35;;;;;;;8.68;1.48;;;;;;;;;;5123298;27;20051;-73
2024/02/15 04:48:07;;;;;;;4.85;1.15;;;;;;;;;;5123051;27;20077;-72
2024/02/15 04:50:37;;;;;;;10.18;1.35;;;;;;;;;;5122479;27;20062;-73
2024/02/15 04:53:11;;;;;;;8.57;1.30;;;;;;;;;;5122674;27;20054;-72
2024/02/15 04:55:41;;;;;;;6.95;1.20;;;;;;;;;;5122928;27;20063;-72
2024/02/15 04:58:11;;;;;;;5.57;1.30;;;;;;;;;;5122104;27;20086;-72
2024/02/15 05:00:42;;;;;;;5.07;1.20;;;;;;;;;;5121747;27;20061;-72
2024/02/15 05:03:13;;;;;;;11.80;1.58;;;;;;;;;;5121943;27;20062;-73
2024/02/15 05:05:44;;;;;;;4.63;1.77;;;;;;;;;;5121728;28;20063;-72
2024/02/15 05:08:14;;;;;;;6.50;1.20;;;;;;;;;;5123412;28;20417;-72
2024/02/15 05:10:45;;;;;;;7.22;1.17;;;;;;;;;;5123185;28;20120;-73
2024/02/15 05:13:16;;;;;;;6.93;1.15;;;;;;;;;;5122371;27;20101;-72
2024/02/15 05:15:47;;;;;;;10.38;1.38;;;;;;;;;;5121584;27;20066;-72
2024/02/15 05:18:17;;;;;;;12.13;1.52;;;;;;;;;;5121821;27;20499;-72
2024/02/15 05:20:47;;;;;;;10.15;1.35;;;;;;;;;;5125964;27;20054;-73
2024/02/15 05:23:18;;;;;;;7.30;1.00;;;;;;;;;;5127013;27;20051;-73
2024/02/15 05:25:49;;;;;;;6.55;1.33;;;;;;;;;;5127556;27;20046;-72
2024/02/15 05:28:20;;;;;;;13.65;1.48;;;;;;;;;;5127303;27;20043;-72
2024/02/15 05:30:51;;;;;;;5.90;1.15;;;;;;;;;;5126969;27;20051;-72
2024/02/15 05:33:21;;;;;;;13.18;1.60;;;;;;;;;;5125629;27;20089;-72
2024/02/15 05:35:52;;;;;;;7.03;1.30;;;;;;;;;;5125665;27;20058;-73
2024/02/15 05:38:23;;;;;;;9.27;1.30;;;;;;;;;;5125741;27;20059;-72
2024/02/15 05:40:54;;;;;;;8.88;1.45;;;;;;;;;;5126327;27;20051;-73
2024/02/15 05:43:25;;;;;;;11.75;1.67;;;;;;;;;;5126079;27;20055;-72
2024/02/15 05:45:59;;;;;;;6.32;1.23;;;;;;;;;;5126164;27;20055;-73
2024/02/15 05:48:30;;;;;;;11.00;1.77;;;;;;;;;;5126361;27;20109;-72
2024/02/15 05:51:01;;;;;;;11.68;1.30;;;;;;;;;;5126779;27;20043;-72
2024/02/15 05:53:35;;;;;;;7.32;1.20;;;;;;;;;;5125735;27;20428;-72
2024/02/15 05:56:08;;;;;;;9.48;1.45;;;;;;;;;;5125052;27;20059;-72
2024/02/15 05:58:42;;;;;;;9.00;1.40;;;;;;;;;;5125528;27;20415;-72
2024/02/15 06:01:13;;;;;;;9.45;1.50;;;;;;;;;;5125628;27;20058;-72
2024/02/15 06:03:44;;;;;;;12.55;1.98;;;;;;;;;;5125733;27;20059;-72
2024/02/15 06:06:16;;;;;;;6.82;1.48;;;;;;;;;;5126093;27;20062;-73
2024/02/15 06:08:48;;;;;;;7.68;1.10;;;;;;;;;;5125567;27;20053;-72
2024/02/15 06:11:22;;;;;;;9.63;1.80;;;;;;;;;;5126027;27;20069;-72
2024/02/15 06:13:52;;;;;;;7.97;1.27;;;;;;;;;;5125375;27;20055;-72
2024/02/15 06:16:22;;;;;;;7.85;1.63;;;;;;;;;;5126165;27;20047;-72
2024/02/15 06:18:54;;;;;;;7.95;1.35;;;;;;;;;;5125885;27;20051;-74
2024/02/15 06:21:28;;;;;;;9.25;1.80;;;;;;;;;;5125545;27;20054;-75
2024/02/15 06:23:58;;;;;;;10.23;1.55;;;;;;;;;;5125845;27;20065;-75
2024/02/15 06:26:29;;;;;;;6.85;1.27;;;;;;;;;;5124740;27;20417;-75
2024/02/15 06:40:29;;;;;;;6.53;1.00;;;;;;;;;;5124216;27;20078;-75
2024/02/15 06:42:59;;;;;;;4.60;0.80;;;;;;;;;;5124964;27;20437;-75
2024/02/15 06:45:31;;;;;;;10.02;1.55;;;;;;;;;;5125019;27;20063;-74
2024/02/15 06:48:03;;;;;;;13.05;2.08;;;;;;;;;;5124601;27;20047;-75
2024/02/15 06:50:37;;;;;;;7.32;1.60;;;;;;;;;;5125460;27;20073;-75
2024/02/15 06:53:08;;;;;;;7.93;1.60;;;;;;;;;;5125419;27;20058;-74
2024/02/15 06:55:39;;;;;;;11.00;1.77;;;;;;;;;;5124090;27;20075;-75
2024/02/15 06:58:13;;;;;;;6.60;1.13;;;;;;;;;;5125127;27;20054;-74
2024/02/15 07:00:44;;;;;;;8.45;1.40;;;;;;;;;;5125582;27;20055;-75
2024/02/15 07:03:16;;;;;;;6.93;1.15;;;;;;;;;;5124304;27;20047;-74
2024/02/15 07:05:47;;;;;;;6.38;1.30;;;;;;;;;;5124472;27;20058;-75
2024/02/15 07:08:19;;;;;;;5.45;1.35;;;;;;;;;;5124894;27;20062;-75
2024/02/15 07:10:52;;;;;;;5.20;1.33;;;;;;;;;;5123918;27;20043;-74
2024/02/15 07:13:22;;;;;;;11.25;1.75;;;;;;;;;;5125154;27;20721;-75
2024/02/15 07:15:52;;;;;;;5.60;1.33;;;;;;;;;;5124499;27;20047;-74
2024/02/15 07:18:22;;;;;;;5.78;1.20;;;;;;;;;;5123712;27;20062;-75
2024/02/15 07:21:00;;;;;;;8.18;1.23;;;;;;;;;;5123894;27;20062;-75
2024/02/15 07:23:31;;;;;;;6.53;1.20;;;;;;;;;;5123826;27;20409;-74
2024/02/15 07:26:57;;;;;;;5.80;0.88;;;;;;;;;;5124564;27;20395;-75
2024/02/15 07:29:45;;;;;;;5.72;1.17;;;;;;;;;;5082471;28;20048;-74
2024/02/15 07:32:17;;;;;;;2.90;0.88;;;;;;;;;;5080749;28;20068;-74
2024/02/15 07:34:49;;;;;;;7.25;1.33;;;;;;;;;;5080224;28;20056;-75
2024/02/15 07:37:23;;;;;;;5.18;1.08;;;;;;;;;;5080071;28;20056;-75
2024/02/15 07:39:54;;;;;;;4.95;1.20;;;;;;;;;;5081519;28;20582;-75
2024/02/15 07:42:25;;;;;;;9.40;1.65;;;;;;;;;;5081151;28;20056;-74
2024/02/15 07:44:55;;;;;;;6.40;1.20;;;;;;;;;;5080498;28;20517;-75
2024/02/15 07:47:26;;;;;;;9.18;1.00;;;;;;;;;;5079684;28;20052;-75
2024/02/15 07:49:59;;;;;;;5.88;1.10;;;;;;;;;;5079218;28;20063;-74
2024/02/15 07:52:31;;;;;;;9.18;1.42;;;;;;;;;;5079206;28;20059;-72
2024/02/15 07:55:07;;;;;;;6.97;1.02;;;;;;;;;;5079277;28;20644;-75
2024/02/15 07:57:38;;;;;;;11.18;1.25;;;;;;;;;;5059578;28;20439;-75
2024/02/15 08:00:10;;;;;;;7.45;1.35;;;;;;;;;;5081997;28;20044;-74
2024/02/15 08:02:41;;;;;;;8.13;1.45;;;;;;;;;;5102951;28;20055;-75
2024/02/15 08:05:13;;;;;;;5.45;1.40;;;;;;;;;;5103516;28;20039;-75
2024/02/15 08:07:45;;;;;;;10.57;1.58;;;;;;;;;;5103139;28;20043;-75
2024/02/15 08:10:15;;;;;;;8.77;1.23;;;;;;;;;;5102730;28;20066;-76
2024/02/15 08:12:52;;;;;;;4.03;1.00;;;;;;;;;;5103207;28;20067;-75
2024/02/15 08:15:24;;;;;;;10.15;1.48;;;;;;;;;;5103716;28;20058;-74
2024/02/15 08:17:55;;;;;;;13.82;1.52;;;;;;;;;;5103380;28;20897;-74
2024/02/15 08:20:26;;;;;;;12.13;1.30;;;;;;;;;;5103046;28;20413;-74
2024/02/15 08:22:59;;;;;;;13.45;1.85;;;;;;;;;;5103350;28;20048;-74
2024/02/15 08:25:31;;;;;;;15.73;1.90;;;;;;;;;;5102953;28;20058;-74
2024/02/15 08:28:05;;;;;;;15.15;1.90;;;;;;;;;;5103244;28;20058;-74
2024/02/15 08:30:37;;;;;;;13.18;1.90;;;;;;;;;;5103406;28;20047;-75
2024/02/15 08:33:10;;;;;;;17.88;2.92;;;;;;;;;;5102749;28;20074;-75
2024/02/15 08:35:41;;;;;;;12.30;1.52;;;;;;;;;;5102522;28;20055;-74
2024/02/15 08:38:12;;;;;;;10.30;1.63;;;;;;;;;;5103244;28;20056;-74
2024/02/15 08:40:44;;;;;;;11.60;1.83;;;;;;;;;;5102547;28;20051;-74
2024/02/15 08:43:18;;;;;;;17.23;1.85;;;;;;;;;;5102505;28;20045;-75
2024/02/15 08:45:48;;;;;;;8.60;1.73;;;;;;;;;;5102435;28;20429;-74
2024/02/15 08:48:47;;;;;;;14.77;1.23;;;;;;;;;;5102167;28;20086;-74
2024/02/15 08:51:18;;;;;;;16.83;2.28;;;;;;;;;;5102204;28;20513;-75
2024/02/15 08:53:55;;;;;;;10.90;1.70;;;;;;;;;;5101985;28;20052;-74
2024/02/15 08:56:27;;;;;;;13.18;1.20;;;;;;;;;;5114010;27;20059;-75
2024/02/15 08:58:57;;;;;;;12.32;1.88;;;;;;;;;;5123476;27;20051;-75
2024/02/15 09:01:33;;;;;;;5.68;1.25;;;;;;;;;;5122340;27;20683;-74
2024/02/15 09:04:04;;;;;;;6.75;1.48;;;;;;;;;;5123274;27;20050;-74
2024/02/15 09:06:36;;;;;;;8.23;2.50;;;;;;;;;;5122658;27;20066;-75
2024/02/15 09:09:07;;;;;;;8.23;1.33;;;;;;;;;;5122298;27;20058;-75
2024/02/15 09:11:37;;;;;;;5.70;1.35;;;;;;;;;;5122526;28;20067;-74
2024/02/15 09:14:11;;;;;;;4.65;1.10;;;;;;;;;;5122848;28;20681;-74
2024/02/15 09:16:41;;;;;;;6.85;1.20;;;;;;;;;;5122044;27;20058;-74
2024/02/15 09:19:11;;;;;;;8.13;1.48;;;;;;;;;;5121495;27;20051;-74
2024/02/15 09:21:42;;;;;;;5.38;1.45;;;;;;;;;;5122215;27;20054;-73
2024/02/15 09:24:16;;;;;;;9.85;1.60;;;;;;;;;;5123330;28;20054;-73
2024/02/15 09:26:48;;;;;;;8.93;1.40;;;;;;;;;;5122614;27;20506;-74
2024/02/15 09:29:20;;;;;;;10.40;1.65;;;;;;;;;;5122049;27;20521;-74
2024/02/15 09:31:52;;;;;;;15.18;1.65;;;;;;;;;;5122307;27;20417;-74
2024/02/15 09:34:23;;;;;;;19.10;1.98;;;;;;;;;;5121203;27;20062;-73
2024/02/15 09:36:56;;;;;;;14.23;1.70;;;;;;;;;;5121775;27;20528;-73
2024/02/15 09:39:27;;;;;;;15.48;1.63;;;;;;;;;;5121902;27;20047;-83
2024/02/15 09:42:01;;;;;;;6.85;1.45;;;;;;;;;;5122211;27;20051;-73
2024/02/15 09:44:31;;;;;;;8.32;1.50;;;;;;;;;;5122609;28;20047;-74
2024/02/15 09:47:08;;;;;;;5.45;1.52;;;;;;;;;;5123091;28;20079;-73
2024/02/15 09:49:40;;;;;;;6.43;1.20;;;;;;;;;;5122776;27;20386;-74
2024/02/15 09:52:11;;;;;;;19.15;2.85;;;;;;;;;;5123229;27;20407;-73
2024/02/15 09:54:45;;;;;;;4.57;1.40;;;;;;;;;;5121893;27;20066;-77
2024/02/15 09:57:18;;;;;;;12.50;2.00;;;;;;;;;;5122540;27;20066;-74
2024/02/15 09:59:48;;;;;;;10.27;2.20;;;;;;;;;;5121573;27;20521;-73
2024/02/15 10:02:19;;;;;;;14.10;1.70;;;;;;;;;;5122315;27;20047;-75
2024/02/15 10:04:52;;;;;;;12.95;1.88;;;;;;;;;;5122496;27;20051;-75
2024/02/15 10:07:29;;;;;;;7.68;1.48;;;;;;;;;;5125085;27;20051;-74
2024/02/15 10:10:21;;;;;;;15.73;1.60;;;;;;;;;;5126008;27;20051;-73
2024/02/15 10:12:55;;;;;;;11.85;1.88;;;;;;;;;;5125383;27;20050;-78
2024/02/15 10:15:35;;;;;;;11.13;2.50;;;;;;;;;;5125817;27;20074;-74
2024/02/15 10:18:11;;;;;;;15.50;2.10;;;;;;;;;;5125766;27;20063;-75
2024/02/15 10:20:57;;;;;;;15.25;1.75;;;;;;;;;;5125226;27;20062;-75
2024/02/15 10:23:27;;;;;;;15.13;1.73;;;;;;;;;;5125920;27;20054;-76
2024/02/15 10:25:58;;;;;;;11.55;1.38;;;;;;;;;;5124728;27;20638;-79
2024/02/15 10:28:29;;;;;;;11.23;1.40;;;;;;;;;;5125031;27;20047;-74
2024/02/15 10:31:12;;;;;;;17.95;5.97;;;;;;;;;;5124600;27;20047;-75
2024/02/15 10:33:42;;;;;;;9.23;1.73;;;;;;;;;;5124215;27;20081;-74
2024/02/15 10:36:14;;;;;;;9.40;1.98;;;;;;;;;;5125120;27;20055;-75
2024/02/15 10:38:45;;;;;;;13.55;1.65;;;;;;;;;;5124372;27;20051;-75
2024/02/15 10:41:20;;;;;;;15.95;2.08;;;;;;;;;;5125174;27;20054;-75
2024/02/15 10:43:51;;;;;;;20.55;2.42;;;;;;;;;;5125886;27;20074;-75
2024/02/15 10:46:21;;;;;;;11.65;3.30;;;;;;;;;;5125400;27;20066;-75
2024/02/15 10:48:52;;;;;;;19.73;2.20;;;;;;;;;;5125057;27;20066;-75
2024/02/15 10:51:24;;;;;;;7.57;1.58;;;;;;;;;;5124834;27;20076;-75
2024/02/15 10:54:03;;;;;;;21.58;2.72;;;;;;;;;;5123986;27;20576;-75
2024/02/15 10:56:42;;;;;;;12.27;2.00;;;;;;;;;;5124233;27;20638;-75
2024/02/15 10:59:26;;;;;;;21.17;2.25;;;;;;;;;;5125274;27;20498;-76
2024/02/15 11:02:00;;;;;;;8.93;1.40;;;;;;;;;;5124563;27;20051;-75
2024/02/15 11:04:35;;;;;;;6.93;1.55;;;;;;;;;;5125488;27;20401;-75
2024/02/15 11:07:06;;;;;;;12.05;2.67;;;;;;;;;;5124083;27;20513;-75
2024/02/15 11:09:39;;;;;;;7.00;1.63;;;;;;;;;;5124060;27;20047;-75
2024/02/15 11:12:11;;;;;;;10.13;1.95;;;;;;;;;;5124322;27;20051;-72
2024/02/15 11:14:45;;;;;;;23.85;3.15;;;;;;;;;;5123188;27;20047;-73
2024/02/15 11:17:48;;;;;;;11.70;1.73;;;;;;;;;;5124366;27;20497;-73
2024/02/15 11:20:38;;;;;;;13.05;2.10;;;;;;;;;;5124378;27;20490;-73
2024/02/15 11:23:10;;;;;;;12.02;1.80;;;;;;;;;;5123779;27;20608;-73
2024/02/15 11:25:50;;;;;;;11.93;2.38;;;;;;;;;;5123594;27;20639;-77
2024/02/15 11:28:23;;;;;;;20.35;2.47;;;;;;;;;;5124804;27;20050;-77
2024/02/15 11:30:57;;;;;;;7.97;2.13;;;;;;;;;;5124090;27;20059;-75
2024/02/15 11:33:30;;;;;;;7.70;1.73;;;;;;;;;;5124908;27;20055;-74
2024/02/15 11:36:11;;;;;;;7.68;1.30;;;;;;;;;;5124429;27;20051;-74
2024/02/15 11:38:43;;;;;;;5.50;1.52;;;;;;;;;;5123001;27;20051;-74
2024/02/15 11:41:20;;;;;;;8.15;2.08;;;;;;;;;;5122924;27;20069;-76
2024/02/15 11:43:56;;;;;;;9.23;2.40;;;;;;;;;;5123649;27;20058;-75
2024/02/15 11:46:32;;;;;;;10.68;1.45;;;;;;;;;;5123673;27;20055;-74
2024/02/15 11:49:04;;;;;;;13.90;2.30;;;;;;;;;;5123693;27;20047;-74
2024/02/15 11:51:36;;;;;;;11.88;1.80;;;;;;;;;;5123977;27;20497;-74
2024/02/15 11:54:11;;;;;;;10.23;3.53;;;;;;;;;;5123004;27;20058;-74
2024/02/15 11:56:47;;;;;;;;;;;;;;;;;;5124364;27;20417;-74
2024/02/15 11:59:32;;;;;;;8.05;2.13;;;;;;;;;;5122563;27;19935;-74
2024/02/15 12:18:58;;;;;;;11.60;1.52;;;;;;;;;;5123972;27;20051;-74
2024/02/15 12:21:29;;;;;;;13.35;1.80;;;;;;;;;;5123194;27;20524;-75
2024/02/15 12:24:00;;;;;;;9.07;1.67;;;;;;;;;;5122805;27;20047;-75
2024/02/15 12:26:34;;;;;;;8.20;1.50;;;;;;;;;;5122340;27;20062;-74
2024/02/15 12:29:07;;;;;;;14.75;2.47;;;;;;;;;;5122422;27;20080;-75
2024/02/15 12:31:38;;;;;;;7.72;1.23;;;;;;;;;;5122496;27;20077;-74
2024/02/15 12:34:09;;;;;;;10.02;1.90;;;;;;;;;;5122634;27;20062;-75
2024/02/15 12:36:42;;;;;;;16.67;2.75;;;;;;;;;;5122254;27;20055;-75
2024/02/15 12:39:14;;;;;;;16.98;2.22;;;;;;;;;;5122184;27;20051;-74
2024/02/15 12:41:53;;;;;;;6.75;2.13;;;;;;;;;;5121853;27;20051;-75
2024/02/15 12:44:27;;;;;;;7.13;1.38;;;;;;;;;;5122135;27;20067;-75
2024/02/15 12:46:59;;;;;;;24.95;2.25;;;;;;;;;;5121862;27;20532;-74
2024/02/15 12:49:31;;;;;;;12.32;1.83;;;;;;;;;;5122758;27;20054;-75
2024/02/15 12:52:36;;;;;;;7.78;1.70;;;;;;;;;;5122168;27;20070;-74
2024/02/15 12:55:12;;;;;;;9.10;2.05;;;;;;;;;;5123683;27;20047;-74
2024/02/15 12:57:52;;;;;;;7.85;1.35;;;;;;;;;;5122586;27;20055;-75
2024/02/15 13:00:31;;;;;;;10.45;1.30;;;;;;;;;;5115158;27;20048;-74
2024/02/15 13:03:04;;;;;;;10.38;1.50;;;;;;;;;;5096915;28;20517;-78
2024/02/15 13:05:38;;;;;;;9.35;1.80;;;;;;;;;;5097209;28;20052;-74
2024/02/15 13:08:13;;;;;;;7.60;1.40;;;;;;;;;;5095951;28;20050;-77
2024/02/15 13:10:44;;;;;;;11.80;1.70;;;;;;;;;;5098040;28;20047;-74
2024/02/15 13:13:14;;;;;;;6.93;1.85;;;;;;;;;;5098706;28;20051;-74
2024/02/15 13:15:45;;;;;;;11.00;1.92;;;;;;;;;;5097832;28;20498;-74
2024/02/15 13:18:19;;;;;;;7.80;2.03;;;;;;;;;;5100150;28;20062;-77
2024/02/15 13:20:52;;;;;;;12.05;2.17;;;;;;;;;;5102547;28;20039;-75
2024/02/15 13:23:25;;;;;;;10.07;1.65;;;;;;;;;;5101973;28;20541;-74
2024/02/15 13:25:57;;;;;;;10.18;1.45;;;;;;;;;;5101992;28;20052;-75
2024/02/15 13:28:28;;;;;;;7.57;1.55;;;;;;;;;;5102375;28;20047;-74
2024/02/15 13:30:58;;;;;;;9.07;1.60;;;;;;;;;;5101618;28;20522;-75
2024/02/15 13:33:31;;;;;;;5.68;1.27;;;;;;;;;;5101693;28;20533;-77
2024/02/15 13:36:10;;;;;;;12.43;1.98;;;;;;;;;;5101458;28;20066;-73
2024/02/15 13:38:42;;;;;;;8.30;1.45;;;;;;;;;;5102532;28;20043;-74
2024/02/15 13:41:12;;;;;;;17.02;5.43;;;;;;;;;;5103193;28;20067;-74
2024/02/15 13:43:42;;;;;;;8.30;1.73;;;;;;;;;;5106283;28;20039;-74
2024/02/15 13:46:15;;;;;;;7.43;1.17;;;;;;;;;;5105865;28;20062;-76
2024/02/15 13:48:46;;;;;;;6.75;1.33;;;;;;;;;;5105966;27;20694;-75
2024/02/15 13:51:19;;;;;;;11.35;2.08;;;;;;;;;;5106079;28;20439;-74
2024/02/15 13:53:49;;;;;;;7.60;2.45;;;;;;;;;;5119566;27;20042;-74
2024/02/15 13:56:19;;;;;;;8.43;2.17;;;;;;;;;;5124701;27;20059;-73
2024/02/15 13:58:49;;;;;;;6.57;1.58;;;;;;;;;;5125336;27;20434;-74
2024/02/15 14:01:21;;;;;;;6.80;1.13;;;;;;;;;;5123836;27;20047;-73
2024/02/15 14:03:51;;;;;;;7.63;1.50;;;;;;;;;;5125108;27;20099;-74
2024/02/15 14:06:22;;;;;;;9.48;1.95;;;;;;;;;;5122991;27;20623;-75
2024/02/15 14:08:55;;;;;;;6.90;1.70;;;;;;;;;;5123720;27;20544;-75
2024/02/15 14:11:25;;;;;;;5.97;1.45;;;;;;;;;;5125426;27;20047;-75
2024/02/15 14:14:01;;;;;;;6.18;1.50;;;;;;;;;;5126393;27;20062;-75
2024/02/15 14:16:31;;;;;;;7.85;1.63;;;;;;;;;;5125451;27;20514;-75
2024/02/15 14:19:06;;;;;;;8.07;1.65;;;;;;;;;;5124254;27;20240;-76
2024/02/15 14:22:08;;;;;;;7.15;1.15;;;;;;;;;;5126434;27;20043;-76
2024/02/15 14:24:39;;;;;;;8.13;2.30;;;;;;;;;;5125235;27;20051;-76
2024/02/15 14:27:09;;;;;;;9.05;2.58;;;;;;;;;;5126092;27;20039;-76
2024/02/15 14:32:59;;;;;;;6.88;1.50;;;;;;;;;;5124350;27;20058;-75
2024/02/15 14:35:21;;;;;;;7.72;1.02;;;;;;;;;;5125471;27;20046;-78
2024/02/15 14:37:51;;;;;;;7.95;1.23;;;;;;;;;;5124602;27;20057;-78
2024/02/15 14:40:21;;;;;;;35.55;3.17;;;;;;;;;;5125069;27;20043;-77
2024/02/15 14:42:55;;;;;;;14.43;1.60;;;;;;;;;;5125825;27;20059;-76
2024/02/15 14:45:26;;;;;;;6.78;1.58;;;;;;;;;;5124559;27;20682;-76
2024/02/15 14:47:58;;;;;;;8.63;1.38;;;;;;;;;;5125142;27;20058;-75
2024/02/15 14:50:29;;;;;;;8.95;1.60;;;;;;;;;;5124287;27;20074;-76
2024/02/15 14:52:58;;;;;;;13.57;2.60;;;;;;;;;;5123977;27;20043;-80
2024/02/15 14:55:31;;;;;;;11.25;1.38;;;;;;;;;;5125306;27;20055;-75
2024/02/15 14:58:02;;;;;;;28.80;2.10;;;;;;;;;;5124936;27;20058;-77
2024/02/15 15:00:47;;;;;;;10.48;1.35;;;;;;;;;;5124578;27;20051;-75
2024/02/15 15:03:17;;;;;;;41.40;2.72;;;;;;;;;;5124314;27;20054;-77
2024/02/15 15:14:17;;;;;;;4.88;1.15;;;;;;;;;;5123777;27;20070;-75
2024/02/15 15:16:48;;;;;;;5.68;1.10;;;;;;;;;;5124995;27;20054;-73
2024/02/15 15:19:18;;;;;;;8.55;1.13;;;;;;;;;;5124175;27;20050;-75
2024/02/15 15:21:49;;;;;;;7.43;1.20;;;;;;;;;;5124705;27;20766;-72
2024/02/15 15:24:19;;;;;;;6.70;1.65;;;;;;;;;;5124380;27;20528;-72
2024/02/15 15:26:52;;;;;;;6.18;0.93;;;;;;;;;;5123303;27;20047;-75
2024/02/15 15:29:23;;;;;;;6.70;1.20;;;;;;;;;;5123862;27;20051;-73
2024/02/15 15:31:53;;;;;;;8.20;1.55;;;;;;;;;;5124596;27;20055;-73
2024/02/15 15:34:23;;;;;;;4.88;1.15;;;;;;;;;;5123286;27;20051;-74
2024/02/15 15:36:54;;;;;;;6.45;0.90;;;;;;;;;;5123931;27;20051;-75
2024/02/15 15:39:26;;;;;;;7.05;1.13;;;;;;;;;;5123715;27;20699;-79
2024/02/15 15:42:00;;;;;;;5.93;1.27;;;;;;;;;;5124263;27;20509;-75
2024/02/15 15:44:31;;;;;;;6.15;1.70;;;;;;;;;;5121500;27;20059;-74
2024/02/15 15:47:01;;;;;;;200.77;10.20;;;;;;;;;;5122948;27;20074;-74
2024/02/15 15:49:32;;;;;;;65.22;2.95;;;;;;;;;;5123387;27;20409;-74
2024/02/15 15:52:04;;;;;;;21.20;1.33;;;;;;;;;;5123073;27;20058;-74
2024/02/15 15:54:34;;;;;;;16.80;1.52;;;;;;;;;;5123719;27;20592;-75
2024/02/15 15:57:04;;;;;;;39.28;3.08;;;;;;;;;;5123527;27;20051;-73